This is the latest recevied weather packets stored in our database for station/object W5HKR. If no packets are shown the sender has not sent any weather packets the latest 10 day(s).
| Time | Temp. | Humidity | Pressure | Rain* | Wind** | Luminosity | Snow |
|---|---|---|---|---|---|---|---|
| 1778077406 | 24.44° C | 89% | 981.4 hPa | 0 mm | - | - | - |
| 1778077104 | 24.44° C | 90% | 981.4 hPa | 0 mm | - | - | - |
| 1778076956 | 24.44° C | 90% | 981.2 hPa | 0 mm | - | - | - |
| 1778076804 | 24.44° C | 90% | 981.6 hPa | 0 mm | - | - | - |
| 1778076505 | 24.44° C | 90% | 981.3 hPa | 0 mm | - | - | - |
| 1778076204 | 18.33° C | 91% | 990.6 hPa | 0 mm | - | - | - |
| 1778075875 | 23.89° C | 91% | 980.7 hPa | 0 mm | - | - | - |
| 1778075604 | 23.89° C | 91% | 980.7 hPa | 0 mm | - | - | - |
| 1778075305 | 23.89° C | 91% | 980.7 hPa | 0 mm | - | - | - |
| 1778075004 | 18.33° C | 91% | 990.6 hPa | 0 mm | - | - | - |
| 1778074795 | 18.33° C | 91% | 990.6 hPa | 0 mm | - | - | - |
| 1778074705 | 23.89° C | 91% | 980.7 hPa | 0 mm | - | - | - |
| 1778073715 | 23.89° C | 91% | 980.7 hPa | 0 mm | - | - | - |
| 1778073506 | 23.89° C | 91% | 980.7 hPa | 0 mm | - | - | - |
| 1778073204 | 18.33° C | 91% | 990.6 hPa | 0 mm | - | - | - |
| 1778072905 | 18.33° C | 91% | 990.6 hPa | 0 mm | - | - | - |
| 1778072635 | 18.33° C | 91% | 990.6 hPa | 0 mm | - | - | - |
| 1778072605 | 23.89° C | 92% | 980.6 hPa | 0 mm | - | - | - |
| 1778072305 | 23.89° C | 92% | 980.4 hPa | 0 mm | - | - | - |
| 1778072004 | 18.33° C | 91% | 990.6 hPa | 0 mm | - | - | - |
| 1778071703 | 23.33° C | 92% | 981 hPa | 0 mm | - | - | - |
| 1778071555 | 23.33° C | 92% | 980.4 hPa | 0 mm | - | - | - |
| 1778071404 | 18.33° C | 91% | 990.6 hPa | 0 mm | - | - | - |
| 1778071104 | 23.33° C | 92% | 980.6 hPa | 0 mm | - | - | - |
| 1778070804 | 18.33° C | 91% | 990.6 hPa | 0 mm | - | - | - |
* Rain latest hour (hover to see other rain measurements)
** Current wind speed in m/s (hover to see current wind gust speed)